Los Alamitos Army Air Field
KSLI : now visible

Airfield :











YOU CAN JOIN US ON...

 
LOGIN :

Register | Disclaimer

   EN    FR    IT 

 









Legend :    VFR   Marginal VFR   IFR   Intensive IFR   Very Intensive IFR
Visi :
Ceiling :
>= 8 km
>= 3000ft
5 to 8 km
1000 to 3000 ft
1500m to 5 km
500 to 1000 ft
800 to 1500m
200 to 500 ft
< 800m
< 200 ft
Symbols :   Thunderstorms  Fog  Heavy snow  Heavy precipitations  Wind > 20 kt







- Airport Elevation : 32 ft


KSLI - Los Alamitos Army Air Field

CURRENT METAR :
  • 220158Z AUTO 31007KT 10SM CLR 24/11 A2980 RMK AO2 SLP094 T02430113

EXPIRED METARs :
  • 220058Z AUTO 29007KT 10SM CLR 27/11 A2979 RMK AO2 SLP091 T02740110
  • 212358Z AUTO 20004KT 10SM CLR 29/16 A2978 RMK AO2 SLP087 T02850157 10285 20251 57015

TAF TAF KSLI
Valid from the 21 at 21:00 until the 23 at 03:00 UTC


212100Z 2121/2303 19009KT 9999 SKC QNH2975INS
BECMG 2205/2206 VRB06KT 9999 SCT020 QNH2982INS
BECMG 2222/2223 20009KT 9999 SCT030 QNH2979INS TX28/2123Z TN16/2214Z
No reported NOTAMs for that airfield.



MET'MAP, your aeronautical weather chart ! - Copyright ORBIFLY December 2007 - Disclaimer

ORBIFLY MET'MAP TEAM :

Programming & Development : Alexandra Zaïnal
Concept & Development : Baudouin d'Aumeries
Co-Development & Prog : Marc-Olivier Méhu
Technical & hardware support : Manuel Goepfert

Contact : metmap@orbifly.com




SOURCES & CREDITS :

   NOAA       Earth
Advisory